sensor_id;sensor_type;location;lat;lon;timestamp;P1;durP1;ratioP1;P2;durP2;ratioP2
36233;SDS011;43467;50.890;5.982;2023-09-19T00:01:06;11.15;;;2.58;;
36233;SDS011;43467;50.890;5.982;2023-09-19T00:03:37;8.15;;;2.38;;
36233;SDS011;43467;50.890;5.982;2023-09-19T00:06:04;7.90;;;2.67;;
36233;SDS011;43467;50.890;5.982;2023-09-19T00:08:30;10.93;;;3.53;;
36233;SDS011;43467;50.890;5.982;2023-09-19T00:10:56;12.25;;;2.58;;
36233;SDS011;43467;50.890;5.982;2023-09-19T00:13:29;14.02;;;3.33;;
36233;SDS011;43467;50.890;5.982;2023-09-19T00:15:56;7.22;;;2.60;;
36233;SDS011;43467;50.890;5.982;2023-09-19T00:18:24;9.70;;;2.78;;
36233;SDS011;43467;50.890;5.982;2023-09-19T00:20:56;7.90;;;2.63;;
36233;SDS011;43467;50.890;5.982;2023-09-19T00:23:22;10.95;;;2.75;;
36233;SDS011;43467;50.890;5.982;2023-09-19T00:25:49;9.27;;;3.00;;
36233;SDS011;43467;50.890;5.982;2023-09-19T00:28:16;9.15;;;2.78;;
36233;SDS011;43467;50.890;5.982;2023-09-19T00:30:43;8.13;;;2.38;;
36233;SDS011;43467;50.890;5.982;2023-09-19T00:33:09;13.75;;;3.08;;
36233;SDS011;43467;50.890;5.982;2023-09-19T00:35:36;9.77;;;2.80;;
36233;SDS011;43467;50.890;5.982;2023-09-19T00:38:02;11.70;;;3.10;;
36233;SDS011;43467;50.890;5.982;2023-09-19T00:40:29;9.65;;;2.83;;
36233;SDS011;43467;50.890;5.982;2023-09-19T00:42:57;10.52;;;3.03;;
36233;SDS011;43467;50.890;5.982;2023-09-19T00:45:26;15.63;;;3.58;;
36233;SDS011;43467;50.890;5.982;2023-09-19T00:47:51;17.60;;;3.45;;
36233;SDS011;43467;50.890;5.982;2023-09-19T00:50:17;8.82;;;2.95;;
36233;SDS011;43467;50.890;5.982;2023-09-19T00:52:44;8.82;;;2.15;;
36233;SDS011;43467;50.890;5.982;2023-09-19T00:55:15;11.88;;;2.78;;
36233;SDS011;43467;50.890;5.982;2023-09-19T00:57:44;12.18;;;3.38;;
36233;SDS011;43467;50.890;5.982;2023-09-19T01:00:11;16.77;;;3.53;;
36233;SDS011;43467;50.890;5.982;2023-09-19T01:02:43;10.82;;;3.38;;
36233;SDS011;43467;50.890;5.982;2023-09-19T01:05:09;13.00;;;2.60;;
36233;SDS011;43467;50.890;5.982;2023-09-19T01:07:35;12.25;;;3.20;;
36233;SDS011;43467;50.890;5.982;2023-09-19T01:10:04;9.10;;;2.67;;
36233;SDS011;43467;50.890;5.982;2023-09-19T01:18:16;11.68;;;2.85;;
36233;SDS011;43467;50.890;5.982;2023-09-19T01:31:54;15.48;;;2.97;;
36233;SDS011;43467;50.890;5.982;2023-09-19T01:34:26;9.30;;;2.92;;
36233;SDS011;43467;50.890;5.982;2023-09-19T01:36:52;17.30;;;3.55;;
36233;SDS011;43467;50.890;5.982;2023-09-19T01:39:17;18.30;;;3.38;;
36233;SDS011;43467;50.890;5.982;2023-09-19T01:44:22;10.27;;;2.83;;
36233;SDS011;43467;50.890;5.982;2023-09-19T01:47:17;12.77;;;2.80;;
36233;SDS011;43467;50.890;5.982;2023-09-19T01:52:49;9.70;;;3.00;;
36233;SDS011;43467;50.890;5.982;2023-09-19T01:55:22;12.43;;;2.40;;
36233;SDS011;43467;50.890;5.982;2023-09-19T01:58:01;10.90;;;2.70;;
36233;SDS011;43467;50.890;5.982;2023-09-19T02:00:32;12.98;;;2.67;;
36233;SDS011;43467;50.890;5.982;2023-09-19T02:03:01;17.27;;;3.20;;
36233;SDS011;43467;50.890;5.982;2023-09-19T02:05:28;11.35;;;3.58;;
36233;SDS011;43467;50.890;5.982;2023-09-19T02:07:54;11.05;;;2.67;;
36233;SDS011;43467;50.890;5.982;2023-09-19T02:10:20;15.68;;;3.08;;
36233;SDS011;43467;50.890;5.982;2023-09-19T02:12:47;15.35;;;2.70;;
36233;SDS011;43467;50.890;5.982;2023-09-19T02:15:12;12.25;;;3.30;;
36233;SDS011;43467;50.890;5.982;2023-09-19T02:17:40;14.55;;;3.40;;
36233;SDS011;43467;50.890;5.982;2023-09-19T02:20:07;10.55;;;2.88;;
36233;SDS011;43467;50.890;5.982;2023-09-19T02:22:35;16.33;;;2.80;;
36233;SDS011;43467;50.890;5.982;2023-09-19T02:25:00;13.38;;;2.90;;
36233;SDS011;43467;50.890;5.982;2023-09-19T02:27:27;15.13;;;3.17;;
36233;SDS011;43467;50.890;5.982;2023-09-19T02:29:52;10.82;;;2.97;;
36233;SDS011;43467;50.890;5.982;2023-09-19T02:32:18;10.02;;;2.90;;
36233;SDS011;43467;50.890;5.982;2023-09-19T02:34:43;9.20;;;2.92;;
36233;SDS011;43467;50.890;5.982;2023-09-19T02:37:09;15.15;;;3.03;;
36233;SDS011;43467;50.890;5.982;2023-09-19T02:39:35;14.82;;;3.78;;
36233;SDS011;43467;50.890;5.982;2023-09-19T02:42:01;8.55;;;2.70;;
36233;SDS011;43467;50.890;5.982;2023-09-19T02:44:29;16.00;;;3.50;;
36233;SDS011;43467;50.890;5.982;2023-09-19T02:46:54;12.20;;;4.22;;
36233;SDS011;43467;50.890;5.982;2023-09-19T02:49:20;11.18;;;2.80;;
36233;SDS011;43467;50.890;5.982;2023-09-19T02:51:45;14.95;;;3.22;;
36233;SDS011;43467;50.890;5.982;2023-09-19T02:54:12;11.75;;;3.10;;
36233;SDS011;43467;50.890;5.982;2023-09-19T02:56:38;11.98;;;3.47;;
36233;SDS011;43467;50.890;5.982;2023-09-19T02:59:05;11.65;;;2.90;;
36233;SDS011;43467;50.890;5.982;2023-09-19T03:01:31;17.42;;;4.00;;
36233;SDS011;43467;50.890;5.982;2023-09-19T03:03:57;10.25;;;3.03;;
36233;SDS011;43467;50.890;5.982;2023-09-19T03:06:23;13.45;;;4.07;;
36233;SDS011;43467;50.890;5.982;2023-09-19T03:08:49;13.75;;;3.20;;
36233;SDS011;43467;50.890;5.982;2023-09-19T03:11:16;12.05;;;3.38;;
36233;SDS011;43467;50.890;5.982;2023-09-19T03:13:46;12.48;;;3.33;;
36233;SDS011;43467;50.890;5.982;2023-09-19T03:16:16;17.65;;;3.30;;
36233;SDS011;43467;50.890;5.982;2023-09-19T03:18:41;17.05;;;4.03;;
36233;SDS011;43467;50.890;5.982;2023-09-19T03:21:07;13.60;;;2.95;;
36233;SDS011;43467;50.890;5.982;2023-09-19T03:23:32;12.82;;;3.60;;
36233;SDS011;43467;50.890;5.982;2023-09-19T03:25:58;9.30;;;2.80;;
36233;SDS011;43467;50.890;5.982;2023-09-19T03:28:24;13.48;;;3.10;;
36233;SDS011;43467;50.890;5.982;2023-09-19T03:31:04;10.13;;;2.70;;
36233;SDS011;43467;50.890;5.982;2023-09-19T03:33:31;17.48;;;3.85;;
36233;SDS011;43467;50.890;5.982;2023-09-19T03:35:58;16.83;;;2.88;;
36233;SDS011;43467;50.890;5.982;2023-09-19T03:38:24;16.20;;;3.35;;
36233;SDS011;43467;50.890;5.982;2023-09-19T03:40:50;9.07;;;2.70;;
36233;SDS011;43467;50.890;5.982;2023-09-19T03:43:16;11.65;;;3.22;;
36233;SDS011;43467;50.890;5.982;2023-09-19T03:45:42;13.20;;;3.65;;
36233;SDS011;43467;50.890;5.982;2023-09-19T03:48:11;12.75;;;3.53;;
36233;SDS011;43467;50.890;5.982;2023-09-19T03:50:37;12.23;;;2.80;;
36233;SDS011;43467;50.890;5.982;2023-09-19T03:53:03;11.50;;;3.33;;
36233;SDS011;43467;50.890;5.982;2023-09-19T03:55:29;14.05;;;3.10;;
36233;SDS011;43467;50.890;5.982;2023-09-19T03:57:55;12.15;;;2.92;;
36233;SDS011;43467;50.890;5.982;2023-09-19T04:00:22;12.68;;;2.90;;
36233;SDS011;43467;50.890;5.982;2023-09-19T04:02:48;16.30;;;3.50;;
36233;SDS011;43467;50.890;5.982;2023-09-19T04:05:14;10.60;;;2.83;;
36233;SDS011;43467;50.890;5.982;2023-09-19T04:07:40;13.77;;;3.65;;
36233;SDS011;43467;50.890;5.982;2023-09-19T04:10:05;14.80;;;3.20;;
36233;SDS011;43467;50.890;5.982;2023-09-19T04:12:34;12.30;;;3.10;;
36233;SDS011;43467;50.890;5.982;2023-09-19T04:14:59;13.02;;;2.90;;
36233;SDS011;43467;50.890;5.982;2023-09-19T04:17:25;16.45;;;3.17;;
36233;SDS011;43467;50.890;5.982;2023-09-19T04:19:50;10.82;;;2.72;;
36233;SDS011;43467;50.890;5.982;2023-09-19T04:22:16;11.88;;;3.80;;
36233;SDS011;43467;50.890;5.982;2023-09-19T04:24:41;18.17;;;3.58;;
36233;SDS011;43467;50.890;5.982;2023-09-19T04:27:07;16.77;;;3.13;;
36233;SDS011;43467;50.890;5.982;2023-09-19T04:29:34;15.48;;;3.53;;
36233;SDS011;43467;50.890;5.982;2023-09-19T04:32:00;12.68;;;3.13;;
36233;SDS011;43467;50.890;5.982;2023-09-19T04:34:29;11.63;;;3.47;;
36233;SDS011;43467;50.890;5.982;2023-09-19T04:36:55;13.70;;;3.47;;
36233;SDS011;43467;50.890;5.982;2023-09-19T04:39:23;11.13;;;3.13;;
36233;SDS011;43467;50.890;5.982;2023-09-19T04:41:51;13.70;;;2.80;;
36233;SDS011;43467;50.890;5.982;2023-09-19T04:44:16;12.70;;;3.15;;
36233;SDS011;43467;50.890;5.982;2023-09-19T04:46:43;13.43;;;2.90;;
36233;SDS011;43467;50.890;5.982;2023-09-19T04:49:09;16.08;;;3.42;;
36233;SDS011;43467;50.890;5.982;2023-09-19T04:51:35;17.02;;;4.43;;
36233;SDS011;43467;50.890;5.982;2023-09-19T04:54:01;11.43;;;3.00;;
36233;SDS011;43467;50.890;5.982;2023-09-19T04:56:28;9.88;;;2.65;;
36233;SDS011;43467;50.890;5.982;2023-09-19T04:58:54;10.93;;;3.08;;
36233;SDS011;43467;50.890;5.982;2023-09-19T05:01:19;14.77;;;2.83;;
36233;SDS011;43467;50.890;5.982;2023-09-19T05:03:47;13.52;;;3.45;;
36233;SDS011;43467;50.890;5.982;2023-09-19T05:06:17;13.13;;;3.55;;
36233;SDS011;43467;50.890;5.982;2023-09-19T05:08:49;26.98;;;5.22;;
36233;SDS011;43467;50.890;5.982;2023-09-19T05:11:17;18.13;;;3.10;;
36233;SDS011;43467;50.890;5.982;2023-09-19T05:13:43;14.35;;;3.85;;
36233;SDS011;43467;50.890;5.982;2023-09-19T05:16:09;13.50;;;3.45;;
36233;SDS011;43467;50.890;5.982;2023-09-19T05:18:35;17.10;;;3.40;;
36233;SDS011;43467;50.890;5.982;2023-09-19T05:21:04;11.32;;;2.80;;
36233;SDS011;43467;50.890;5.982;2023-09-19T05:23:30;10.10;;;2.67;;
36233;SDS011;43467;50.890;5.982;2023-09-19T05:25:56;12.52;;;3.30;;
36233;SDS011;43467;50.890;5.982;2023-09-19T05:28:25;16.80;;;3.60;;
36233;SDS011;43467;50.890;5.982;2023-09-19T05:30:52;9.68;;;2.83;;
36233;SDS011;43467;50.890;5.982;2023-09-19T05:33:18;11.65;;;2.95;;
36233;SDS011;43467;50.890;5.982;2023-09-19T05:35:44;13.93;;;3.38;;
36233;SDS011;43467;50.890;5.982;2023-09-19T05:38:12;17.58;;;3.45;;
36233;SDS011;43467;50.890;5.982;2023-09-19T05:40:39;11.43;;;2.95;;
36233;SDS011;43467;50.890;5.982;2023-09-19T05:43:08;18.65;;;3.13;;
36233;SDS011;43467;50.890;5.982;2023-09-19T05:45:34;11.68;;;3.88;;
36233;SDS011;43467;50.890;5.982;2023-09-19T05:48:08;17.58;;;3.88;;
36233;SDS011;43467;50.890;5.982;2023-09-19T05:50:41;10.60;;;2.70;;
36233;SDS011;43467;50.890;5.982;2023-09-19T05:53:08;10.65;;;2.80;;
36233;SDS011;43467;50.890;5.982;2023-09-19T05:55:37;15.25;;;3.10;;
36233;SDS011;43467;50.890;5.982;2023-09-19T05:58:02;15.93;;;3.60;;
36233;SDS011;43467;50.890;5.982;2023-09-19T06:00:29;10.65;;;3.03;;
36233;SDS011;43467;50.890;5.982;2023-09-19T06:02:55;13.68;;;3.35;;
36233;SDS011;43467;50.890;5.982;2023-09-19T06:05:23;13.68;;;3.40;;
36233;SDS011;43467;50.890;5.982;2023-09-19T06:07:51;12.40;;;2.95;;
36233;SDS011;43467;50.890;5.982;2023-09-19T06:10:18;14.77;;;3.45;;
36233;SDS011;43467;50.890;5.982;2023-09-19T06:12:45;14.38;;;3.30;;
36233;SDS011;43467;50.890;5.982;2023-09-19T06:15:15;14.57;;;3.30;;
36233;SDS011;43467;50.890;5.982;2023-09-19T06:17:47;12.32;;;3.25;;
36233;SDS011;43467;50.890;5.982;2023-09-19T06:20:17;10.48;;;3.08;;
36233;SDS011;43467;50.890;5.982;2023-09-19T06:22:43;12.60;;;3.30;;
36233;SDS011;43467;50.890;5.982;2023-09-19T06:25:12;10.43;;;3.03;;
36233;SDS011;43467;50.890;5.982;2023-09-19T06:27:41;16.20;;;3.10;;
36233;SDS011;43467;50.890;5.982;2023-09-19T06:30:08;13.82;;;3.40;;
36233;SDS011;43467;50.890;5.982;2023-09-19T06:35:09;20.92;;;3.50;;
36233;SDS011;43467;50.890;5.982;2023-09-19T06:37:36;13.23;;;3.28;;
36233;SDS011;43467;50.890;5.982;2023-09-19T06:40:09;13.82;;;3.08;;
36233;SDS011;43467;50.890;5.982;2023-09-19T06:42:40;17.92;;;4.15;;
36233;SDS011;43467;50.890;5.982;2023-09-19T06:45:10;19.17;;;3.63;;
36233;SDS011;43467;50.890;5.982;2023-09-19T06:47:38;15.15;;;3.25;;
36233;SDS011;43467;50.890;5.982;2023-09-19T06:50:04;16.45;;;3.38;;
36233;SDS011;43467;50.890;5.982;2023-09-19T06:52:31;15.20;;;3.45;;
36233;SDS011;43467;50.890;5.982;2023-09-19T06:54:58;18.70;;;4.22;;
36233;SDS011;43467;50.890;5.982;2023-09-19T06:57:24;13.75;;;3.30;;
36233;SDS011;43467;50.890;5.982;2023-09-19T06:59:49;12.10;;;4.55;;
36233;SDS011;43467;50.890;5.982;2023-09-19T07:02:15;13.60;;;3.28;;
36233;SDS011;43467;50.890;5.982;2023-09-19T07:04:40;11.20;;;3.40;;
36233;SDS011;43467;50.890;5.982;2023-09-19T07:07:06;13.38;;;3.20;;
36233;SDS011;43467;50.890;5.982;2023-09-19T07:09:36;10.60;;;3.95;;
36233;SDS011;43467;50.890;5.982;2023-09-19T07:12:02;16.85;;;3.15;;
36233;SDS011;43467;50.890;5.982;2023-09-19T07:14:28;12.18;;;2.65;;
36233;SDS011;43467;50.890;5.982;2023-09-19T07:16:55;17.83;;;3.65;;
36233;SDS011;43467;50.890;5.982;2023-09-19T07:19:20;17.00;;;3.22;;
36233;SDS011;43467;50.890;5.982;2023-09-19T07:21:46;12.00;;;3.42;;
36233;SDS011;43467;50.890;5.982;2023-09-19T07:24:12;16.60;;;3.63;;
36233;SDS011;43467;50.890;5.982;2023-09-19T07:26:38;17.15;;;3.63;;
36233;SDS011;43467;50.890;5.982;2023-09-19T07:29:05;13.57;;;3.25;;
36233;SDS011;43467;50.890;5.982;2023-09-19T07:31:31;12.15;;;2.70;;
36233;SDS011;43467;50.890;5.982;2023-09-19T07:33:57;14.95;;;3.33;;
36233;SDS011;43467;50.890;5.982;2023-09-19T07:36:26;14.70;;;3.53;;
36233;SDS011;43467;50.890;5.982;2023-09-19T07:38:51;14.30;;;3.45;;
36233;SDS011;43467;50.890;5.982;2023-09-19T07:41:16;14.18;;;3.60;;
36233;SDS011;43467;50.890;5.982;2023-09-19T07:43:46;12.85;;;3.40;;
36233;SDS011;43467;50.890;5.982;2023-09-19T07:46:11;14.32;;;3.90;;
36233;SDS011;43467;50.890;5.982;2023-09-19T07:48:37;15.45;;;3.20;;
36233;SDS011;43467;50.890;5.982;2023-09-19T07:51:06;9.88;;;2.90;;
36233;SDS011;43467;50.890;5.982;2023-09-19T07:53:34;14.77;;;3.47;;
36233;SDS011;43467;50.890;5.982;2023-09-19T07:56:04;14.00;;;3.33;;
36233;SDS011;43467;50.890;5.982;2023-09-19T07:58:31;11.05;;;3.08;;
36233;SDS011;43467;50.890;5.982;2023-09-19T08:01:04;16.35;;;3.92;;
36233;SDS011;43467;50.890;5.982;2023-09-19T08:03:30;9.45;;;2.78;;
36233;SDS011;43467;50.890;5.982;2023-09-19T08:05:56;13.68;;;3.70;;
36233;SDS011;43467;50.890;5.982;2023-09-19T08:08:22;9.80;;;2.97;;
36233;SDS011;43467;50.890;5.982;2023-09-19T08:10:52;13.93;;;2.83;;
36233;SDS011;43467;50.890;5.982;2023-09-19T08:13:22;14.07;;;4.00;;
36233;SDS011;43467;50.890;5.982;2023-09-19T08:15:51;15.57;;;3.10;;
36233;SDS011;43467;50.890;5.982;2023-09-19T08:18:25;17.77;;;3.13;;
36233;SDS011;43467;50.890;5.982;2023-09-19T08:21:17;14.30;;;3.20;;
36233;SDS011;43467;50.890;5.982;2023-09-19T08:23:44;11.43;;;2.85;;
36233;SDS011;43467;50.890;5.982;2023-09-19T08:26:09;10.80;;;3.03;;
36233;SDS011;43467;50.890;5.982;2023-09-19T08:28:35;10.48;;;2.80;;
36233;SDS011;43467;50.890;5.982;2023-09-19T08:31:01;12.60;;;3.70;;
36233;SDS011;43467;50.890;5.982;2023-09-19T08:33:37;13.82;;;3.30;;
36233;SDS011;43467;50.890;5.982;2023-09-19T08:36:03;10.27;;;2.92;;
36233;SDS011;43467;50.890;5.982;2023-09-19T08:38:30;15.23;;;2.80;;
36233;SDS011;43467;50.890;5.982;2023-09-19T08:40:58;15.90;;;3.28;;
36233;SDS011;43467;50.890;5.982;2023-09-19T08:43:25;12.55;;;2.90;;
36233;SDS011;43467;50.890;5.982;2023-09-19T08:45:58;14.20;;;3.50;;
36233;SDS011;43467;50.890;5.982;2023-09-19T08:48:31;12.73;;;3.35;;
36233;SDS011;43467;50.890;5.982;2023-09-19T08:51:03;9.85;;;2.33;;
36233;SDS011;43467;50.890;5.982;2023-09-19T08:53:51;12.85;;;3.85;;
36233;SDS011;43467;50.890;5.982;2023-09-19T08:56:24;15.82;;;3.35;;
36233;SDS011;43467;50.890;5.982;2023-09-19T08:58:53;11.02;;;2.88;;
36233;SDS011;43467;50.890;5.982;2023-09-19T09:01:23;11.20;;;3.53;;
36233;SDS011;43467;50.890;5.982;2023-09-19T09:03:53;12.82;;;2.92;;
36233;SDS011;43467;50.890;5.982;2023-09-19T09:06:23;8.48;;;2.78;;
36233;SDS011;43467;50.890;5.982;2023-09-19T09:08:52;9.77;;;2.60;;
36233;SDS011;43467;50.890;5.982;2023-09-19T09:11:18;9.18;;;2.75;;
36233;SDS011;43467;50.890;5.982;2023-09-19T09:13:44;12.13;;;3.20;;
36233;SDS011;43467;50.890;5.982;2023-09-19T09:16:11;14.45;;;2.97;;
36233;SDS011;43467;50.890;5.982;2023-09-19T09:18:38;13.43;;;2.97;;
36233;SDS011;43467;50.890;5.982;2023-09-19T09:21:05;16.63;;;3.78;;
36233;SDS011;43467;50.890;5.982;2023-09-19T09:23:30;11.77;;;2.90;;
36233;SDS011;43467;50.890;5.982;2023-09-19T09:25:57;14.52;;;3.22;;
36233;SDS011;43467;50.890;5.982;2023-09-19T09:28:28;9.32;;;2.67;;
36233;SDS011;43467;50.890;5.982;2023-09-19T09:30:59;7.88;;;2.60;;
36233;SDS011;43467;50.890;5.982;2023-09-19T09:33:26;14.63;;;3.53;;
36233;SDS011;43467;50.890;5.982;2023-09-19T09:35:58;13.10;;;3.60;;
36233;SDS011;43467;50.890;5.982;2023-09-19T09:38:28;14.88;;;3.45;;
36233;SDS011;43467;50.890;5.982;2023-09-19T09:41:08;11.80;;;2.85;;
36233;SDS011;43467;50.890;5.982;2023-09-19T09:43:35;10.95;;;2.85;;
36233;SDS011;43467;50.890;5.982;2023-09-19T09:46:14;10.40;;;2.70;;
36233;SDS011;43467;50.890;5.982;2023-09-19T09:49:02;13.02;;;3.53;;
36233;SDS011;43467;50.890;5.982;2023-09-19T09:51:45;10.75;;;3.38;;
36233;SDS011;43467;50.890;5.982;2023-09-19T09:54:22;15.30;;;2.70;;
36233;SDS011;43467;50.890;5.982;2023-09-19T09:56:56;9.65;;;2.60;;
36233;SDS011;43467;50.890;5.982;2023-09-19T10:02:27;9.57;;;2.75;;
36233;SDS011;43467;50.890;5.982;2023-09-19T10:04:57;12.75;;;3.38;;
36233;SDS011;43467;50.890;5.982;2023-09-19T10:07:28;12.55;;;3.00;;
36233;SDS011;43467;50.890;5.982;2023-09-19T10:10:02;13.15;;;2.95;;
36233;SDS011;43467;50.890;5.982;2023-09-19T10:12:47;8.77;;;2.97;;
36233;SDS011;43467;50.890;5.982;2023-09-19T10:15:18;11.65;;;2.90;;
36233;SDS011;43467;50.890;5.982;2023-09-19T10:20:21;9.90;;;2.90;;
36233;SDS011;43467;50.890;5.982;2023-09-19T10:22:57;10.57;;;2.72;;
36233;SDS011;43467;50.890;5.982;2023-09-19T10:25:25;9.13;;;2.40;;
36233;SDS011;43467;50.890;5.982;2023-09-19T10:27:54;16.20;;;2.88;;
36233;SDS011;43467;50.890;5.982;2023-09-19T10:30:21;11.18;;;3.50;;
36233;SDS011;43467;50.890;5.982;2023-09-19T10:32:51;9.05;;;3.28;;
36233;SDS011;43467;50.890;5.982;2023-09-19T10:37:49;10.98;;;3.05;;
36233;SDS011;43467;50.890;5.982;2023-09-19T10:40:16;12.73;;;2.58;;
36233;SDS011;43467;50.890;5.982;2023-09-19T10:42:45;10.75;;;2.72;;
36233;SDS011;43467;50.890;5.982;2023-09-19T10:45:13;8.02;;;2.45;;
36233;SDS011;43467;50.890;5.982;2023-09-19T10:47:45;6.10;;;2.50;;
36233;SDS011;43467;50.890;5.982;2023-09-19T10:50:19;11.40;;;2.90;;
36233;SDS011;43467;50.890;5.982;2023-09-19T10:52:46;11.25;;;3.10;;
36233;SDS011;43467;50.890;5.982;2023-09-19T10:55:18;9.10;;;2.55;;
36233;SDS011;43467;50.890;5.982;2023-09-19T10:57:47;11.40;;;3.17;;
36233;SDS011;43467;50.890;5.982;2023-09-19T11:00:13;13.02;;;3.20;;
36233;SDS011;43467;50.890;5.982;2023-09-19T11:05:37;10.75;;;2.95;;
36233;SDS011;43467;50.890;5.982;2023-09-19T11:08:05;9.20;;;2.63;;
36233;SDS011;43467;50.890;5.982;2023-09-19T11:10:50;8.52;;;2.70;;
36233;SDS011;43467;50.890;5.982;2023-09-19T11:13:26;12.05;;;2.97;;
36233;SDS011;43467;50.890;5.982;2023-09-19T11:16:02;8.38;;;2.42;;
36233;SDS011;43467;50.890;5.982;2023-09-19T11:26:47;10.18;;;2.75;;
36233;SDS011;43467;50.890;5.982;2023-09-19T11:29:26;8.23;;;2.35;;
36233;SDS011;43467;50.890;5.982;2023-09-19T11:31:54;6.65;;;2.42;;
36233;SDS011;43467;50.890;5.982;2023-09-19T11:37:03;11.38;;;2.63;;
36233;SDS011;43467;50.890;5.982;2023-09-19T11:40:09;7.03;;;2.13;;
36233;SDS011;43467;50.890;5.982;2023-09-19T11:42:45;14.90;;;2.63;;
36233;SDS011;43467;50.890;5.982;2023-09-19T11:48:20;10.57;;;2.50;;
36233;SDS011;43467;50.890;5.982;2023-09-19T11:50:50;6.68;;;2.15;;
36233;SDS011;43467;50.890;5.982;2023-09-19T11:53:16;10.32;;;2.22;;
36233;SDS011;43467;50.890;5.982;2023-09-19T11:55:45;10.32;;;2.58;;
36233;SDS011;43467;50.890;5.982;2023-09-19T11:58:11;8.80;;;1.80;;
36233;SDS011;43467;50.890;5.982;2023-09-19T12:00:39;9.20;;;2.00;;
36233;SDS011;43467;50.890;5.982;2023-09-19T12:03:09;9.23;;;2.20;;
36233;SDS011;43467;50.890;5.982;2023-09-19T12:05:36;6.22;;;2.25;;
36233;SDS011;43467;50.890;5.982;2023-09-19T12:08:05;9.60;;;2.10;;
36233;SDS011;43467;50.890;5.982;2023-09-19T12:10:45;7.85;;;2.10;;
36233;SDS011;43467;50.890;5.982;2023-09-19T12:13:17;9.30;;;2.15;;
36233;SDS011;43467;50.890;5.982;2023-09-19T12:15:44;8.25;;;2.22;;
36233;SDS011;43467;50.890;5.982;2023-09-19T12:18:28;7.72;;;1.80;;
36233;SDS011;43467;50.890;5.982;2023-09-19T12:20:55;7.55;;;2.25;;
36233;SDS011;43467;50.890;5.982;2023-09-19T12:23:22;7.68;;;2.13;;
36233;SDS011;43467;50.890;5.982;2023-09-19T12:25:48;8.13;;;1.63;;
36233;SDS011;43467;50.890;5.982;2023-09-19T12:28:17;4.18;;;1.75;;
36233;SDS011;43467;50.890;5.982;2023-09-19T12:30:43;8.23;;;1.75;;
36233;SDS011;43467;50.890;5.982;2023-09-19T12:33:16;7.05;;;1.77;;
36233;SDS011;43467;50.890;5.982;2023-09-19T12:35:44;6.10;;;1.65;;
36233;SDS011;43467;50.890;5.982;2023-09-19T12:38:10;11.77;;;2.60;;
36233;SDS011;43467;50.890;5.982;2023-09-19T12:40:39;4.03;;;1.77;;
36233;SDS011;43467;50.890;5.982;2023-09-19T12:43:07;8.30;;;1.92;;
36233;SDS011;43467;50.890;5.982;2023-09-19T12:45:34;7.30;;;1.75;;
36233;SDS011;43467;50.890;5.982;2023-09-19T12:48:23;8.23;;;1.88;;
36233;SDS011;43467;50.890;5.982;2023-09-19T12:51:07;5.88;;;1.50;;
36233;SDS011;43467;50.890;5.982;2023-09-19T12:53:37;7.05;;;1.70;;
36233;SDS011;43467;50.890;5.982;2023-09-19T12:56:12;6.18;;;1.95;;
36233;SDS011;43467;50.890;5.982;2023-09-19T12:58:57;4.68;;;1.38;;
36233;SDS011;43467;50.890;5.982;2023-09-19T13:01:28;7.72;;;1.83;;
36233;SDS011;43467;50.890;5.982;2023-09-19T13:06:43;8.88;;;1.77;;
36233;SDS011;43467;50.890;5.982;2023-09-19T13:09:09;7.10;;;2.17;;
36233;SDS011;43467;50.890;5.982;2023-09-19T13:11:36;3.42;;;1.42;;
36233;SDS011;43467;50.890;5.982;2023-09-19T13:16:55;3.50;;;1.27;;
36233;SDS011;43467;50.890;5.982;2023-09-19T13:19:34;5.20;;;1.35;;
36233;SDS011;43467;50.890;5.982;2023-09-19T13:22:05;3.35;;;1.63;;
36233;SDS011;43467;50.890;5.982;2023-09-19T13:24:51;7.80;;;1.40;;
36233;SDS011;43467;50.890;5.982;2023-09-19T13:27:16;6.30;;;1.65;;
36233;SDS011;43467;50.890;5.982;2023-09-19T13:29:42;5.10;;;1.73;;
36233;SDS011;43467;50.890;5.982;2023-09-19T13:32:07;4.60;;;1.38;;
36233;SDS011;43467;50.890;5.982;2023-09-19T13:34:36;6.38;;;1.90;;
36233;SDS011;43467;50.890;5.982;2023-09-19T13:37:02;6.68;;;1.88;;
36233;SDS011;43467;50.890;5.982;2023-09-19T13:39:29;7.45;;;2.05;;
36233;SDS011;43467;50.890;5.982;2023-09-19T13:41:55;1.85;;;1.08;;
36233;SDS011;43467;50.890;5.982;2023-09-19T13:44:20;4.93;;;1.52;;
36233;SDS011;43467;50.890;5.982;2023-09-19T13:46:46;4.15;;;1.38;;
36233;SDS011;43467;50.890;5.982;2023-09-19T13:49:12;4.32;;;1.30;;
36233;SDS011;43467;50.890;5.982;2023-09-19T13:51:37;4.47;;;1.10;;
36233;SDS011;43467;50.890;5.982;2023-09-19T13:54:03;5.10;;;1.42;;
36233;SDS011;43467;50.890;5.982;2023-09-19T13:56:28;3.78;;;1.30;;
36233;SDS011;43467;50.890;5.982;2023-09-19T13:58:56;3.90;;;1.20;;
36233;SDS011;43467;50.890;5.982;2023-09-19T14:01:21;6.40;;;1.30;;
36233;SDS011;43467;50.890;5.982;2023-09-19T14:03:47;4.80;;;1.52;;
36233;SDS011;43467;50.890;5.982;2023-09-19T14:06:15;6.43;;;1.08;;
36233;SDS011;43467;50.890;5.982;2023-09-19T14:08:41;5.82;;;1.48;;
36233;SDS011;43467;50.890;5.982;2023-09-19T14:11:07;3.67;;;1.23;;
36233;SDS011;43467;50.890;5.982;2023-09-19T14:13:33;2.83;;;1.38;;
36233;SDS011;43467;50.890;5.982;2023-09-19T14:16:05;3.88;;;1.30;;
36233;SDS011;43467;50.890;5.982;2023-09-19T14:18:32;5.97;;;1.50;;
36233;SDS011;43467;50.890;5.982;2023-09-19T14:20:58;4.35;;;1.20;;
36233;SDS011;43467;50.890;5.982;2023-09-19T14:23:28;1.85;;;1.00;;
36233;SDS011;43467;50.890;5.982;2023-09-19T14:25:54;5.68;;;1.23;;
36233;SDS011;43467;50.890;5.982;2023-09-19T14:28:19;3.25;;;1.38;;
36233;SDS011;43467;50.890;5.982;2023-09-19T14:30:44;3.67;;;1.08;;
36233;SDS011;43467;50.890;5.982;2023-09-19T14:33:11;5.20;;;1.45;;
36233;SDS011;43467;50.890;5.982;2023-09-19T14:35:37;4.63;;;1.48;;
36233;SDS011;43467;50.890;5.982;2023-09-19T14:38:03;2.42;;;1.15;;
36233;SDS011;43467;50.890;5.982;2023-09-19T14:40:29;2.30;;;1.10;;
36233;SDS011;43467;50.890;5.982;2023-09-19T14:42:56;3.55;;;1.30;;
36233;SDS011;43467;50.890;5.982;2023-09-19T14:45:21;8.52;;;1.85;;
36233;SDS011;43467;50.890;5.982;2023-09-19T14:47:48;4.95;;;1.48;;
36233;SDS011;43467;50.890;5.982;2023-09-19T14:50:17;4.82;;;1.30;;
36233;SDS011;43467;50.890;5.982;2023-09-19T14:52:43;4.70;;;1.17;;
36233;SDS011;43467;50.890;5.982;2023-09-19T14:55:09;3.65;;;1.35;;
36233;SDS011;43467;50.890;5.982;2023-09-19T14:57:39;6.05;;;1.40;;
36233;SDS011;43467;50.890;5.982;2023-09-19T15:00:06;4.70;;;1.67;;
36233;SDS011;43467;50.890;5.982;2023-09-19T15:02:37;4.55;;;1.30;;
36233;SDS011;43467;50.890;5.982;2023-09-19T15:05:05;3.22;;;1.10;;
36233;SDS011;43467;50.890;5.982;2023-09-19T15:07:33;5.10;;;1.25;;
36233;SDS011;43467;50.890;5.982;2023-09-19T15:10:01;3.70;;;1.30;;
36233;SDS011;43467;50.890;5.982;2023-09-19T15:12:27;4.68;;;1.90;;
36233;SDS011;43467;50.890;5.982;2023-09-19T15:14:54;5.70;;;1.50;;
36233;SDS011;43467;50.890;5.982;2023-09-19T15:17:19;3.42;;;1.35;;
36233;SDS011;43467;50.890;5.982;2023-09-19T15:19:49;4.25;;;1.45;;
36233;SDS011;43467;50.890;5.982;2023-09-19T15:22:16;5.20;;;1.80;;
36233;SDS011;43467;50.890;5.982;2023-09-19T15:24:45;4.20;;;1.35;;
36233;SDS011;43467;50.890;5.982;2023-09-19T15:27:10;5.15;;;1.38;;
36233;SDS011;43467;50.890;5.982;2023-09-19T15:29:37;7.13;;;2.05;;
36233;SDS011;43467;50.890;5.982;2023-09-19T15:32:04;3.72;;;1.40;;
36233;SDS011;43467;50.890;5.982;2023-09-19T15:34:29;2.85;;;1.10;;
36233;SDS011;43467;50.890;5.982;2023-09-19T15:36:55;3.22;;;1.10;;
36233;SDS011;43467;50.890;5.982;2023-09-19T15:39:22;5.00;;;1.63;;
36233;SDS011;43467;50.890;5.982;2023-09-19T15:41:51;5.47;;;1.40;;